Time;durP1;ratioP1;P1;durP2;ratioP2;P2;SDS_P1;SDS_P2;PMS_P1;PMS_P2;Temp;Humidity;BMP_temperature;BMP_pressure;BME280_temperature;BME280_humidity;BME280_pressure;Samples;Min_cycle;Max_cycle;Signal;HPM_P1;HPM_P2
2021/11/02 00:00:57;;;;;;;9.75;2.47;;;10.50;93.40;;;7.89;100.00;98955.25;5029293;28;20056;-90
2021/11/02 00:03:24;;;;;;;12.40;2.50;;;10.50;93.50;;;7.89;100.00;98954.44;5029633;28;20057;-91
2021/11/02 00:05:52;;;;;;;10.77;2.53;;;10.50;93.50;;;7.86;100.00;98957.53;5030810;28;20045;-91
2021/11/02 00:08:19;;;;;;;7.25;2.22;;;10.50;93.60;;;7.85;100.00;98955.88;5028887;28;20619;-92
2021/11/02 00:10:46;;;;;;;9.52;2.35;;;10.50;93.80;;;7.85;100.00;98954.00;5029651;28;20053;-92
2021/11/02 00:13:16;;;;;;;10.82;2.60;;;10.40;93.60;;;7.87;100.00;98956.50;5029297;28;20046;-92
2021/11/02 00:15:55;;;;;;;7.47;2.20;;;10.40;93.80;;;7.80;100.00;98962.72;5046072;28;20111;-90
2021/11/02 00:18:25;;;;;;;9.85;2.42;;;10.40;93.80;;;7.79;100.00;98952.94;5028654;28;20574;-91
2021/11/02 00:20:59;;;;;;;10.25;2.40;;;10.40;93.80;;;7.81;100.00;98961.69;5017851;28;20037;-91
2021/11/02 00:23:27;;;;;;;13.52;2.30;;;10.40;93.90;;;7.82;100.00;98957.09;5010736;28;20095;-91
2021/11/02 00:25:54;;;;;;;11.52;2.47;;;10.30;94.00;;;7.85;100.00;98959.41;5018236;28;20057;-90
2021/11/02 00:28:22;;;;;;;11.52;2.10;;;10.30;94.00;;;7.87;100.00;98961.91;5008565;28;20062;-91
2021/11/02 00:30:50;;;;;;;8.38;2.45;;;10.30;94.10;;;7.86;100.00;98962.94;5009472;28;20422;-91
2021/11/02 00:33:18;;;;;;;7.35;3.05;;;10.30;94.20;;;7.81;100.00;98964.41;5010415;28;20490;-90
2021/11/02 00:35:45;;;;;;;9.63;2.42;;;10.30;94.20;;;7.77;100.00;98965.03;5025446;28;20054;-90
2021/11/02 00:38:13;;;;;;;8.70;2.33;;;10.30;94.20;;;7.70;100.00;98961.47;5009685;28;20088;-91
2021/11/02 00:40:40;;;;;;;8.38;2.60;;;10.30;94.20;;;7.69;100.00;98960.63;5009130;28;20100;-92
2021/11/02 00:43:09;;;;;;;8.00;2.17;;;10.20;94.00;;;7.63;100.00;98959.59;5010238;28;20111;-92
2021/11/02 00:45:39;;;;;;;8.65;2.35;;;10.20;94.10;;;7.58;100.00;98964.75;5009126;28;20251;-91
2021/11/02 00:48:11;;;;;;;11.23;2.53;;;10.20;94.10;;;7.58;100.00;98966.66;5008172;28;20054;-90
2021/11/02 00:50:43;;;;;;;9.88;2.78;;;10.10;94.20;;;7.55;100.00;98969.75;5025407;28;20148;-90
2021/11/02 00:53:11;;;;;;;10.35;2.35;;;10.10;94.20;;;7.57;100.00;98967.66;5010066;28;20046;-90
2021/11/02 00:55:40;;;;;;;11.70;2.30;;;10.10;94.40;;;7.59;100.00;98960.19;5008814;28;20050;-91
2021/11/02 00:58:07;;;;;;;10.25;2.45;;;10.10;94.40;;;7.57;100.00;98962.25;5008028;28;20038;-90
2021/11/02 01:00:37;;;;;;;10.00;3.33;;;10.10;94.40;;;7.52;100.00;98956.59;5025448;28;20050;-92
2021/11/02 01:03:08;;;;;;;8.02;2.80;;;10.10;94.40;;;7.51;100.00;98963.06;5025161;28;20072;-90
2021/11/02 01:05:37;;;;;;;10.35;2.40;;;10.00;94.30;;;7.43;100.00;98962.22;5008926;28;20058;-92
2021/11/02 01:08:05;;;;;;;9.45;2.08;;;10.00;94.30;;;7.39;100.00;98954.72;5024512;28;20053;-91
2021/11/02 01:10:34;;;;;;;9.40;2.70;;;10.00;94.30;;;7.37;100.00;98965.72;5009901;28;20034;-91
2021/11/02 01:13:01;;;;;;;10.55;2.72;;;10.00;94.30;;;7.45;100.00;98964.72;5009743;28;20076;-89
2021/11/02 01:15:32;;;;;;;7.70;2.15;;;10.00;94.50;;;7.55;100.00;98972.44;5024887;28;20151;-91
2021/11/02 01:17:59;;;;;;;7.93;2.30;;;10.00;94.50;;;7.57;100.00;98967.66;5007783;28;20713;-90
2021/11/02 01:20:31;;;;;;;7.75;2.17;;;10.00;94.60;;;7.59;100.00;98963.72;5008452;28;20541;-91
2021/11/02 01:22:58;;;;;;;8.82;2.85;;;10.00;94.80;;;7.68;100.00;98967.06;5008301;28;20054;-91
2021/11/02 01:25:25;;;;;;;11.38;2.80;;;9.90;94.90;;;7.69;100.00;98966.06;5008475;28;20096;-91
2021/11/02 01:27:53;;;;;;;9.95;2.35;;;10.00;95.00;;;7.69;100.00;98963.34;5024352;28;20049;-91
2021/11/02 01:30:26;;;;;;;8.38;2.33;;;10.00;95.10;;;7.66;100.00;98955.63;5008722;28;20042;-90
2021/11/02 01:32:55;;;;;;;7.22;2.38;;;10.00;95.10;;;7.63;100.00;98956.00;5008123;28;20046;-91
2021/11/02 01:35:23;;;;;;;9.63;2.17;;;10.00;95.10;;;7.63;100.00;98964.13;5008338;28;20411;-91
2021/11/02 01:38:03;;;;;;;7.40;2.08;;;10.00;95.10;;;7.53;100.00;98958.28;5007660;28;20088;-91
2021/11/02 01:40:30;;;;;;;7.50;2.10;;;10.00;95.10;;;7.49;100.00;98952.44;5008369;28;20596;-90
2021/11/02 01:42:58;;;;;;;8.88;2.53;;;9.90;95.10;;;7.41;100.00;98948.03;5008128;28;20429;-90
2021/11/02 01:45:28;;;;;;;6.03;2.00;;;9.90;95.10;;;7.32;100.00;98960.09;5008257;28;20137;-90
2021/11/02 01:48:00;;;;;;;10.88;2.17;;;9.90;95.00;;;7.26;100.00;98952.78;5024119;28;20145;-90
2021/11/02 01:50:42;;;;;;;;;;;9.90;95.00;;;7.26;100.00;98946.53;5008678;28;20657;-90
2021/11/02 01:53:11;;;;;;;7.35;2.20;;;9.90;95.10;;;7.27;100.00;98951.72;5024550;28;19933;-91
2021/11/02 01:55:39;;;;;;;9.95;2.42;;;9.80;95.10;;;7.26;100.00;98954.66;5024749;28;20525;-92
2021/11/02 01:58:09;;;;;;;8.38;2.10;;;9.80;95.10;;;7.21;100.00;98947.13;5007326;28;20132;-90
2021/11/02 02:00:36;;;;;;;7.95;2.15;;;9.80;95.10;;;7.21;100.00;98952.53;5008354;28;20466;-89
2021/11/02 02:03:26;;;;;;;9.80;2.33;;;9.70;95.20;;;7.17;100.00;98945.88;5024618;28;20049;-91
2021/11/02 02:06:05;;;;;;;8.00;2.20;;;9.80;95.20;;;7.15;100.00;98948.78;5008029;28;20053;-90
2021/11/02 02:08:48;;;;;;;6.60;1.80;;;9.70;95.10;;;7.11;100.00;98947.50;5007592;28;20120;-91
2021/11/02 02:11:25;;;;;;;6.47;1.90;;;9.70;95.30;;;7.10;100.00;98945.00;5008418;28;20072;-91
2021/11/02 02:14:08;;;;;;;11.30;2.50;;;9.70;95.30;;;7.13;100.00;98955.44;5008085;28;20506;-89
2021/11/02 02:16:40;;;;;;;6.03;1.90;;;9.70;95.40;;;7.12;100.00;98960.00;5024554;28;20045;-91
2021/11/02 02:19:46;;;;;;;8.32;2.20;;;9.60;95.50;;;7.17;100.00;98956.69;5007338;28;20133;-92
2021/11/02 02:22:41;;;;;;;9.52;2.15;;;9.60;95.50;;;7.21;100.00;98955.25;5008104;28;20046;-91
2021/11/02 02:25:42;;;;;;;7.63;1.88;;;9.60;95.70;;;7.15;100.00;98962.28;5008797;28;20041;-90
2021/11/02 02:28:20;;;;;;;6.10;1.90;;;9.60;95.60;;;7.17;100.00;98948.56;5004091;28;20049;-90
2021/11/02 02:30:54;;;;;;;6.47;2.00;;;9.60;95.70;;;7.18;100.00;98950.25;5024356;28;20898;-90
2021/11/02 02:33:27;;;;;;;8.88;1.95;;;9.60;95.90;;;7.13;100.00;98950.00;5007997;28;20596;-90
2021/11/02 02:35:56;;;;;;;7.03;2.22;;;9.60;95.90;;;7.12;100.00;98951.03;5007945;28;20052;-89
2021/11/02 02:38:26;;;;;;;5.47;1.77;;;9.60;95.90;;;7.09;100.00;98952.28;5007157;28;20684;-91
2021/11/02 02:40:57;;;;;;;9.40;2.33;;;9.60;95.90;;;7.09;100.00;98938.75;5007724;28;20093;-89
2021/11/02 02:43:35;;;;;;;8.85;2.15;;;9.60;95.90;;;7.16;100.00;98947.75;5008577;28;20045;-91
2021/11/02 02:46:03;;;;;;;6.72;2.22;;;9.60;96.10;;;7.20;100.00;98949.00;5011407;28;20088;-91
2021/11/02 02:48:33;;;;;;;5.45;2.22;;;9.60;96.20;;;7.22;100.00;98948.81;5010548;28;20480;-91
2021/11/02 02:51:02;;;;;;;7.63;1.98;;;9.60;96.30;;;7.25;100.00;98948.38;5011188;28;20054;-91
2021/11/02 02:53:31;;;;;;;8.20;2.00;;;9.60;96.20;;;7.31;100.00;98953.00;5010899;28;20054;-91
2021/11/02 02:56:02;;;;;;;7.90;2.20;;;9.60;96.50;;;7.36;100.00;98947.81;5010901;28;20049;-90
2021/11/02 02:58:39;;;;;;;9.73;2.50;;;9.60;96.50;;;7.44;100.00;98954.91;5010157;28;20502;-90
2021/11/02 03:01:10;;;;;;;8.55;2.08;;;9.60;96.60;;;7.46;100.00;98954.72;5011133;28;20050;-91
2021/11/02 03:03:45;;;;;;;7.70;2.08;;;9.60;96.70;;;7.43;100.00;98953.25;5010580;28;20046;-90
2021/11/02 03:06:20;;;;;;;4.68;1.80;;;9.60;96.70;;;7.38;100.00;98943.03;5027439;28;20050;-91
2021/11/02 03:08:48;;;;;;;6.43;2.08;;;9.60;96.60;;;7.32;100.00;98940.31;5011323;28;20046;-91
2021/11/02 03:11:19;;;;;;;8.73;1.90;;;9.60;96.50;;;7.24;100.00;98946.72;5010920;28;20053;-90
2021/11/02 03:13:54;;;;;;;6.57;2.10;;;9.60;96.40;;;7.18;100.00;98947.56;5010681;28;20050;-90
2021/11/02 03:16:35;;;;;;;6.80;1.83;;;9.60;96.30;;;7.11;100.00;98942.09;5010799;28;20108;-91
2021/11/02 03:19:36;;;;;;;8.10;1.92;;;9.60;96.20;;;7.08;100.00;98945.19;5009793;28;20081;-91
2021/11/02 03:50:24;;;;;;;6.57;1.67;;;9.50;96.90;;;7.01;100.00;98947.88;5010213;28;20426;-90
2021/11/02 03:55:52;;;;;;;6.85;1.50;;;9.40;96.80;;;6.96;100.00;98944.94;5011171;28;20597;-91
2021/11/02 03:58:29;;;;;;;8.50;2.03;;;9.40;96.80;;;6.96;100.00;98939.53;5009079;28;20049;-91
2021/11/02 04:01:23;;;;;;;6.30;1.65;;;9.40;96.80;;;6.93;100.00;98945.34;5026583;28;20073;-91
2021/11/02 04:35:23;;;;;;;7.10;1.90;;;9.20;96.90;;;6.78;100.00;98939.22;5009129;28;20044;-90
2021/11/02 05:54:19;;;;;;;7.80;2.22;;;9.00;97.80;;;6.70;100.00;98920.44;5007634;28;20057;-82
2021/11/02 05:56:50;;;;;;;6.57;2.00;;;9.00;97.80;;;6.73;100.00;98917.34;5024131;28;20552;-82
2021/11/02 06:07:51;;;;;;;6.22;2.53;;;9.10;98.00;;;6.75;100.00;98921.53;5007317;28;20040;-82
2021/11/02 06:27:53;;;;;;;9.55;2.10;;;9.10;98.00;;;6.82;100.00;98918.88;4992051;28;20050;-87
2021/11/02 06:30:23;;;;;;;7.70;2.38;;;9.10;98.10;;;6.84;100.00;98917.63;4992836;28;20125;-85
2021/11/02 06:33:02;;;;;;;7.60;2.53;;;9.10;98.10;;;6.86;100.00;98917.44;5032887;28;20076;-89
2021/11/02 06:35:32;;;;;;;5.15;1.90;;;9.10;98.20;;;6.89;100.00;98917.00;5032045;28;20103;-90
2021/11/02 06:38:25;;;;;;;7.65;2.33;;;9.10;98.20;;;6.90;100.00;98924.09;5036048;28;20061;-92
2021/11/02 06:49:36;;;;;;;5.50;2.38;;;9.20;98.30;;;7.06;100.00;98931.03;5011145;28;20438;-85
2021/11/02 06:52:42;;;;;;;8.35;2.58;;;9.20;98.40;;;7.12;100.00;98932.09;5012302;28;20403;-84
2021/11/02 06:58:46;;;;;;;4.88;2.20;;;9.20;98.40;;;7.20;100.00;98931.94;4970997;28;20507;-85
2021/11/02 07:15:39;;;;;;;7.82;2.35;;;9.40;98.50;;;7.47;100.00;98938.28;5025578;28;20121;-88
2021/11/02 07:18:10;;;;;;;6.85;2.17;;;9.40;98.60;;;7.51;100.00;98944.13;5011528;28;20048;-86
2021/11/02 07:20:54;;;;;;;;;;;9.50;98.70;;;7.54;100.00;98946.41;5011724;28;20048;-86
2021/11/02 07:23:34;;;;;;;6.35;2.10;;;9.50;98.60;;;7.62;100.00;98948.94;5010328;28;19935;-86
2021/11/02 08:45:39;;;;;;;5.78;1.70;;;10.80;96.40;;;9.04;98.02;98960.41;5008952;28;20102;-81
2021/11/02 08:48:07;;;;;;;7.40;1.60;;;10.80;96.50;;;8.96;97.03;98961.50;5008058;28;20118;-81
2021/11/02 08:50:38;;;;;;;6.78;1.60;;;10.80;96.10;;;8.96;97.69;98960.66;5009757;28;20038;-81
2021/11/02 08:53:08;;;;;;;5.95;1.50;;;10.80;95.80;;;8.92;97.70;98954.81;5011876;28;20490;-81
2021/11/02 08:55:37;;;;;;;4.90;1.73;;;10.80;95.80;;;8.93;98.12;98956.50;5009485;28;20069;-83
2021/11/02 08:58:06;;;;;;;10.60;1.42;;;10.80;96.00;;;8.97;97.95;98960.47;5008813;28;20073;-83
2021/11/02 09:00:35;;;;;;;5.93;1.63;;;10.80;96.10;;;9.05;98.37;98958.56;5009486;28;20100;-83
2021/11/02 09:03:11;;;;;;;10.25;2.00;;;10.90;96.10;;;9.15;98.11;98965.19;5006260;28;20128;-83
2021/11/02 09:05:39;;;;;;;6.30;1.58;;;10.90;95.80;;;9.18;96.49;98959.34;5008275;28;20069;-83
2021/11/02 09:08:11;;;;;;;5.97;1.55;;;10.90;96.00;;;9.20;96.27;98959.13;5008435;28;20042;-83
2021/11/02 09:10:43;;;;;;;6.63;2.00;;;11.00;95.90;;;9.21;97.25;98958.06;5009585;28;20038;-83
2021/11/02 09:13:11;;;;;;;3.72;1.67;;;10.90;95.80;;;9.27;96.77;98962.66;5009252;28;20046;-81
2021/11/02 09:15:41;;;;;;;5.75;1.42;;;11.00;95.50;;;9.30;97.13;98964.94;5009346;28;20046;-81
2021/11/02 09:18:11;;;;;;;8.60;1.98;;;11.00;95.70;;;9.38;96.45;98958.44;5008662;28;20088;-81
2021/11/02 09:20:40;;;;;;;7.32;1.92;;;11.00;95.60;;;9.42;96.53;98958.84;5009065;28;20042;-82
2021/11/02 09:23:09;;;;;;;8.98;1.50;;;11.00;95.70;;;9.49;96.13;98956.94;5005948;28;20551;-81
2021/11/02 09:25:37;;;;;;;11.35;1.92;;;11.10;95.50;;;9.57;96.34;98960.22;5009021;28;20080;-81
2021/11/02 09:28:07;;;;;;;7.10;1.42;;;11.10;95.20;;;9.63;96.00;98950.38;5008376;28;20050;-81
2021/11/02 09:30:34;;;;;;;7.50;1.42;;;11.10;95.50;;;9.66;95.53;98954.56;5009197;28;20046;-81
2021/11/02 09:33:02;;;;;;;7.68;1.60;;;11.20;95.30;;;9.66;93.84;98954.56;5008973;28;20034;-81
2021/11/02 09:35:33;;;;;;;4.82;1.58;;;11.20;95.20;;;9.69;94.60;98949.53;5011457;28;20065;-81
2021/11/02 09:38:14;;;;;;;5.82;1.60;;;11.20;94.60;;;9.70;95.00;98956.59;5006017;28;20037;-81
2021/11/02 09:41:47;;;;;;;4.60;1.50;;;11.20;94.70;;;9.73;93.64;98964.34;5007362;28;20038;-81
2021/11/02 09:45:25;;;;;;;6.45;1.48;;;11.30;94.60;;;9.78;93.31;98963.66;5004009;28;20073;-81
2021/11/02 09:48:33;;;;;;;6.03;1.70;;;11.30;94.40;;;9.94;93.92;98962.34;5007022;28;20078;-81
2021/11/02 09:52:07;;;;;;;7.82;1.75;;;11.30;94.60;;;10.13;92.71;98960.53;5008412;28;20764;-82
2021/11/02 09:55:26;;;;;;;6.22;1.45;;;11.40;93.80;;;10.26;91.49;98960.44;5004593;28;20065;-82
2021/11/02 09:58:20;;;;;;;7.00;1.40;;;11.40;93.10;;;10.34;91.51;98962.09;5011024;28;20053;-82
2021/11/02 10:01:05;;;;;;;4.72;1.50;;;11.50;93.70;;;10.45;91.97;98961.38;5010331;28;20037;-82
2021/11/02 10:04:42;;;;;;;7.03;1.75;;;11.50;94.00;;;10.49;91.22;98970.75;5010905;28;20119;-82
2021/11/02 10:07:58;;;;;;;6.60;1.70;;;11.70;94.30;;;10.46;91.18;98963.00;5010736;28;20073;-82
2021/11/02 10:10:41;;;;;;;5.93;1.50;;;11.70;94.00;;;10.40;90.51;98974.78;4989122;28;20050;-84
2021/11/02 10:13:33;;;;;;;7.03;1.42;;;11.80;92.60;;;10.26;90.92;98978.63;5012282;28;20115;-84
2021/11/02 10:16:17;;;;;;;4.05;1.40;;;11.80;93.20;;;10.18;92.03;98971.56;5009671;28;20119;-85
2021/11/02 10:19:39;;;;;;;7.28;1.20;;;11.80;93.10;;;10.13;91.67;98969.53;5010507;28;20120;-85
2021/11/02 10:22:49;;;;;;;2.92;1.17;;;11.80;93.10;;;10.08;91.79;98974.78;5004433;28;20049;-84
2021/11/02 10:25:27;;;;;;;7.03;1.50;;;11.80;92.90;;;10.11;92.58;98968.91;5011202;28;20054;-85
2021/11/02 10:29:05;;;;;;;4.53;1.30;;;11.80;92.80;;;10.15;92.00;98970.13;5008681;28;20042;-85
2021/11/02 10:31:47;;;;;;;6.55;1.70;;;11.80;92.40;;;10.22;92.76;98966.53;4969440;28;20134;-84
2021/11/02 10:34:33;;;;;;;5.30;1.52;;;11.80;92.80;;;10.15;93.48;98975.56;5009176;28;20447;-84
2021/11/02 10:37:23;;;;;;;7.80;1.75;;;11.80;92.80;;;10.06;94.03;98960.56;5010824;28;20466;-82
2021/11/02 10:40:11;;;;;;;4.35;1.45;;;11.80;92.80;;;10.05;95.39;98964.34;5026151;28;20046;-84
2021/11/02 10:43:04;;;;;;;7.70;1.90;;;11.80;93.30;;;10.08;96.44;98963.91;5009372;28;20189;-84
2021/11/02 10:45:36;;;;;;;8.52;2.10;;;11.90;93.80;;;10.11;96.58;98963.47;5009920;28;20053;-84
2021/11/02 10:48:09;;;;;;;5.88;1.65;;;11.90;93.80;;;10.10;97.68;98961.78;5010478;28;20410;-84
2021/11/02 10:50:38;;;;;;;4.40;1.40;;;11.90;93.90;;;10.11;96.76;98963.47;5010827;28;20061;-84
2021/11/02 10:53:09;;;;;;;4.53;1.73;;;11.90;93.90;;;10.15;97.91;98961.97;5009561;28;20046;-84
2021/11/02 10:55:58;;;;;;;6.63;1.90;;;11.90;94.10;;;10.11;98.47;98963.47;5010436;28;20453;-83
2021/11/02 10:58:36;;;;;;;8.48;1.90;;;11.90;94.40;;;10.09;99.31;98959.28;5009363;28;20053;-84
2021/11/02 11:01:10;;;;;;;5.18;1.60;;;11.90;94.50;;;10.14;99.41;98957.56;5009911;28;20034;-84
2021/11/02 11:03:42;;;;;;;4.68;1.70;;;12.00;94.60;;;10.22;100.00;98956.47;5009616;28;20055;-84
2021/11/02 11:06:11;;;;;;;3.97;1.63;;;12.00;94.90;;;10.26;99.82;98954.16;5010660;28;20042;-85
2021/11/02 11:08:40;;;;;;;7.47;1.80;;;12.00;95.00;;;10.33;98.21;98960.41;5001713;28;20046;-85
2021/11/02 11:11:10;;;;;;;4.82;1.80;;;12.00;94.70;;;10.41;98.25;98956.56;5009561;28;20087;-85
2021/11/02 11:13:40;;;;;;;6.20;1.60;;;12.00;94.70;;;10.46;98.68;98960.28;5010056;28;20034;-85
2021/11/02 11:16:12;;;;;;;5.43;1.73;;;12.10;95.00;;;10.49;98.27;98956.28;5010427;28;20113;-84
2021/11/02 11:18:56;;;;;;;4.85;1.67;;;12.10;95.10;;;10.49;97.38;98954.44;5009054;28;20045;-84
2021/11/02 11:21:26;;;;;;;5.90;1.67;;;12.10;94.80;;;10.46;96.18;98960.28;5007403;28;20125;-85
2021/11/02 11:24:05;;;;;;;4.63;1.55;;;12.10;94.30;;;10.45;95.58;98958.66;5008865;28;20048;-85
2021/11/02 11:26:33;;;;;;;6.88;1.92;;;12.10;94.00;;;10.50;95.94;98961.50;5009891;28;20034;-85
2021/11/02 11:29:06;;;;;;;5.05;1.42;;;12.10;94.30;;;10.57;97.01;98954.13;5009127;28;20092;-85
2021/11/02 11:31:35;;;;;;;7.65;3.22;;;12.10;94.50;;;10.59;95.85;98955.81;5001610;28;20421;-84
2021/11/02 11:34:05;;;;;;;6.25;2.70;;;12.20;94.20;;;10.61;94.33;98951.81;5009755;28;20041;-84
2021/11/02 11:36:34;;;;;;;8.65;2.92;;;12.20;94.30;;;10.61;94.90;98950.97;5009095;28;20046;-84
2021/11/02 11:39:06;;;;;;;5.57;2.13;;;12.20;94.30;;;10.66;95.94;98945.69;5008917;28;20038;-85
2021/11/02 11:41:36;;;;;;;3.88;1.33;;;12.20;94.30;;;10.66;94.45;98948.41;5009719;28;20526;-84
2021/11/02 11:44:06;;;;;;;4.28;1.50;;;12.30;94.10;;;10.67;92.74;98950.06;5010276;28;20038;-85
2021/11/02 11:46:34;;;;;;;5.10;0.95;;;12.30;93.60;;;10.68;93.25;98949.84;5008435;28;20141;-84
2021/11/02 11:49:02;;;;;;;3.17;1.15;;;12.30;93.50;;;10.70;93.71;98938.72;5008449;28;20124;-84
2021/11/02 11:51:33;;;;;;;2.45;0.80;;;12.30;93.60;;;10.70;92.04;98944.16;5009973;28;20056;-85
2021/11/02 11:54:05;;;;;;;9.15;1.10;;;12.30;93.20;;;10.74;91.96;98942.69;5008330;28;20077;-84
2021/11/02 11:56:36;;;;;;;3.28;0.80;;;12.30;93.00;;;10.79;92.65;98942.81;5008698;28;20060;-84
2021/11/02 11:59:04;;;;;;;;;;;12.30;92.60;;;10.77;92.75;98939.50;5008975;28;20073;-84
2021/11/02 12:01:41;;;;;;;3.05;0.90;;;12.30;93.20;;;10.76;92.45;98941.41;5009915;28;20008;-84
2021/11/02 12:04:15;;;;;;;3.17;1.05;;;12.40;93.10;;;10.83;91.88;98933.16;5009085;28;20120;-84
2021/11/02 12:06:51;;;;;;;3.35;1.13;;;12.40;92.90;;;10.91;92.29;98934.78;5009388;28;20072;-84
2021/11/02 12:09:22;;;;;;;4.82;1.00;;;12.40;92.80;;;10.95;92.12;98938.69;5006831;28;20099;-84
2021/11/02 12:11:50;;;;;;;2.75;1.10;;;12.50;93.20;;;11.01;92.46;98932.34;5008183;28;20447;-84
2021/11/02 12:14:24;;;;;;;3.65;1.08;;;12.50;92.90;;;11.02;91.88;98914.94;5009217;28;20046;-83
2021/11/02 12:16:58;;;;;;;5.13;1.20;;;12.50;93.20;;;11.06;91.19;98923.47;5007937;28;20546;-86
2021/11/02 12:19:46;;;;;;;4.65;1.10;;;12.50;92.90;;;11.04;90.58;98922.88;5009007;28;20585;-85
2021/11/02 12:22:34;;;;;;;2.97;1.10;;;12.50;92.30;;;10.98;89.18;98924.63;5007984;28;20049;-86
2021/11/02 12:25:10;;;;;;;5.78;1.73;;;12.50;91.60;;;10.98;90.75;98929.25;5015735;28;20053;-84
2021/11/02 12:27:40;;;;;;;4.80;1.02;;;12.50;92.00;;;10.96;90.20;98922.13;5007361;28;20045;-84
2021/11/02 12:30:12;;;;;;;2.60;1.02;;;12.50;91.70;;;10.96;89.61;98922.13;5008868;28;20030;-84
2021/11/02 12:32:46;;;;;;;4.53;1.58;;;12.50;91.00;;;10.89;90.34;98924.09;5008764;28;20050;-84
2021/11/02 12:35:32;;;;;;;6.43;1.30;;;12.50;91.10;;;10.83;89.92;98927.69;5007650;28;20137;-84
2021/11/02 12:38:05;;;;;;;5.18;1.58;;;12.50;91.80;;;10.81;91.42;98931.72;5006867;28;20547;-84
2021/11/02 12:40:35;;;;;;;5.15;1.73;;;12.50;91.80;;;10.77;92.75;98928.63;5009115;28;20050;-84
2021/11/02 12:43:03;;;;;;;3.72;1.55;;;12.50;92.20;;;10.75;91.48;98925.28;5008497;28;20042;-84
2021/11/02 12:45:40;;;;;;;5.72;1.83;;;12.50;91.60;;;10.76;92.12;98921.53;5009153;28;20415;-84
2021/11/02 12:48:12;;;;;;;7.78;1.83;;;12.50;92.00;;;10.67;92.98;98920.16;5007560;28;20131;-84
2021/11/02 12:50:41;;;;;;;5.15;1.40;;;12.50;91.90;;;10.67;92.75;98917.44;5008688;28;20108;-84
2021/11/02 12:53:09;;;;;;;4.78;1.25;;;12.50;92.10;;;10.66;92.99;98913.88;5008930;28;20046;-84
2021/11/02 12:55:37;;;;;;;4.20;1.33;;;12.50;92.20;;;10.69;93.93;98902.53;5023895;28;20077;-84
2021/11/02 12:58:18;;;;;;;3.03;1.20;;;12.50;92.20;;;10.69;93.91;98898.97;5008210;28;20128;-84
2021/11/02 13:00:50;;;;;;;5.60;1.30;;;12.50;92.40;;;10.72;93.68;98898.53;5008629;28;20046;-84
2021/11/02 13:03:27;;;;;;;3.28;1.45;;;12.50;92.40;;;10.75;93.14;98898.91;5008286;28;20042;-84
2021/11/02 13:06:00;;;;;;;3.42;1.45;;;12.50;92.20;;;10.82;93.96;98892.56;5007824;28;20034;-84
2021/11/02 13:08:40;;;;;;;3.45;1.10;;;12.50;92.50;;;10.84;93.94;98894.00;5006743;28;20038;-84
2021/11/02 13:11:11;;;;;;;6.45;1.40;;;12.50;92.80;;;10.84;93.71;98888.56;5006317;28;20034;-84
2021/11/02 13:14:07;;;;;;;6.07;1.60;;;12.50;92.60;;;10.82;93.42;98885.25;5007443;28;20133;-84
2021/11/02 13:16:58;;;;;;;3.50;1.00;;;12.60;92.60;;;10.80;92.37;98887.34;5007270;28;20104;-84
2021/11/02 13:19:33;;;;;;;4.28;1.20;;;12.50;91.90;;;10.75;91.97;98888.00;5007052;28;20045;-86
2021/11/02 13:22:13;;;;;;;5.10;1.00;;;12.50;92.30;;;10.79;93.92;98891.13;5021374;28;20046;-85
2021/11/02 13:24:55;;;;;;;3.13;1.00;;;12.50;92.40;;;10.82;93.00;98885.25;5008558;28;20038;-86
2021/11/02 13:27:35;;;;;;;4.53;1.08;;;12.50;92.40;;;10.79;92.42;98891.13;5007507;28;20041;-85
2021/11/02 13:30:30;;;;;;;4.95;1.10;;;12.50;92.30;;;10.86;92.72;98881.00;5007326;28;20080;-85
2021/11/02 13:33:06;;;;;;;5.22;1.10;;;12.60;92.30;;;10.86;93.17;98882.91;5003451;28;20030;-87
2021/11/02 13:35:52;;;;;;;4.63;1.13;;;12.60;92.40;;;10.81;91.85;98883.56;4999140;28;20054;-87
2021/11/02 13:38:36;;;;;;;2.45;0.93;;;12.60;91.70;;;10.75;92.08;98876.31;5004401;28;20076;-87
2021/11/02 13:41:18;;;;;;;3.22;1.10;;;12.60;91.90;;;10.70;91.58;98878.88;5004563;28;20164;-85
2021/11/02 13:43:47;;;;;;;3.72;1.15;;;12.60;92.10;;;10.68;92.43;98876.41;5020614;28;20820;-85
2021/11/02 13:46:18;;;;;;;4.88;1.00;;;12.60;92.00;;;10.66;92.03;98873.06;5005673;28;20065;-86
2021/11/02 13:48:46;;;;;;;2.55;1.08;;;12.50;91.70;;;10.66;92.25;98867.63;5000176;28;20061;-86
2021/11/02 13:51:17;;;;;;;5.07;1.00;;;12.50;91.60;;;10.66;91.85;98864.06;5006012;28;20042;-86
2021/11/02 13:53:45;;;;;;;;;;;12.50;91.70;;;10.63;92.15;98867.25;5005881;28;20052;-90
2021/11/02 13:56:16;;;;;;;3.22;1.17;;;12.50;91.70;;;10.63;91.58;98867.25;5007936;28;19921;-86
2021/11/02 13:58:43;;;;;;;;;;;12.50;91.40;;;10.68;91.60;98867.38;5007491;28;20461;-84
2021/11/02 14:01:20;;;;;;;4.97;1.55;;;12.40;91.10;;;10.72;91.37;98872.16;5007274;28;19972;-85
2021/11/02 14:03:54;;;;;;;3.55;1.30;;;12.50;91.80;;;10.74;90.90;98872.75;5005452;28;20486;-85
2021/11/02 14:06:24;;;;;;;3.95;1.20;;;12.50;91.80;;;10.70;90.56;98876.16;5007493;28;20045;-85
2021/11/02 14:08:53;;;;;;;6.53;1.63;;;12.50;91.20;;;10.67;88.86;98876.63;5006068;28;20456;-85
2021/11/02 14:11:26;;;;;;;3.80;1.20;;;12.50;90.80;;;10.66;90.23;98877.66;5007044;28;20078;-85
2021/11/02 14:13:55;;;;;;;7.10;1.20;;;12.50;91.00;;;10.64;91.31;98877.06;5007210;28;20069;-85
2021/11/02 14:16:38;;;;;;;3.83;1.40;;;12.50;91.40;;;10.64;90.97;98874.34;4998367;28;20407;-86
2021/11/02 14:19:28;;;;;;;5.20;1.30;;;12.50;91.40;;;10.62;90.22;98881.88;5006964;28;20052;-85
2021/11/02 14:21:55;;;;;;;4.18;1.30;;;12.50;90.90;;;10.59;91.12;98880.47;5006941;28;20045;-86
2021/11/02 14:24:34;;;;;;;4.43;1.40;;;12.50;91.20;;;10.59;91.13;98882.38;5007330;28;20117;-85
2021/11/02 14:27:06;;;;;;;5.10;1.40;;;12.50;91.00;;;10.61;91.26;98880.25;5007105;28;20050;-87
2021/11/02 14:29:55;;;;;;;4.85;1.88;;;12.50;91.20;;;10.56;90.86;98878.19;4999048;28;20244;-85
2021/11/02 14:32:56;;;;;;;5.18;1.40;;;12.50;90.70;;;10.50;91.51;98884.53;5001020;28;20421;-85
2021/11/02 14:35:55;;;;;;;3.20;1.40;;;12.40;90.70;;;10.49;91.96;98877.41;5002909;28;20459;-85
2021/11/02 14:38:26;;;;;;;5.72;1.40;;;12.40;91.10;;;10.47;91.60;98874.94;5005408;28;20998;-85
2021/11/02 14:40:56;;;;;;;4.40;1.38;;;12.40;90.60;;;10.42;92.32;98880.22;5010337;28;20123;-85
2021/11/02 14:43:33;;;;;;;7.45;1.80;;;12.40;91.20;;;10.41;92.78;98880.44;5010075;28;20487;-84
2021/11/02 14:46:04;;;;;;;3.22;1.38;;;12.40;91.30;;;10.36;93.67;98872.97;5010937;28;20070;-84
2021/11/02 14:48:49;;;;;;;4.30;1.50;;;12.40;91.40;;;10.35;93.31;98877.53;5008824;28;20060;-85
2021/11/02 14:51:26;;;;;;;2.95;1.15;;;12.40;91.20;;;10.33;92.62;98873.38;5009540;28;20066;-85
2021/11/02 14:53:57;;;;;;;3.13;1.20;;;12.40;91.20;;;10.31;93.41;98875.50;5010628;28;20196;-84
2021/11/02 14:56:33;;;;;;;4.70;1.30;;;12.30;91.60;;;10.29;93.38;98872.97;5010681;28;20127;-85
2021/11/02 14:59:04;;;;;;;3.67;1.20;;;12.30;91.30;;;10.23;93.54;98875.75;5009418;28;20069;-84
2021/11/02 15:02:09;;;;;;;2.70;1.20;;;12.30;91.60;;;10.22;93.78;98884.97;5006820;28;20050;-85
2021/11/02 15:04:38;;;;;;;4.50;1.23;;;12.30;91.60;;;10.20;93.88;98876.19;5005626;28;20037;-85
2021/11/02 15:07:06;;;;;;;3.28;1.35;;;12.20;91.30;;;10.18;94.54;98885.44;5008857;28;20045;-84
2021/11/02 15:09:36;;;;;;;3.05;1.00;;;12.20;91.90;;;10.18;94.88;98882.72;5023439;28;20058;-85
2021/11/02 15:12:06;;;;;;;6.57;1.38;;;12.20;91.90;;;10.13;95.19;98885.25;5010285;28;20061;-87
2021/11/02 15:14:39;;;;;;;3.33;1.20;;;12.20;91.90;;;10.11;95.14;98879.22;5008542;28;20100;-86
2021/11/02 15:17:10;;;;;;;3.03;1.00;;;12.20;91.90;;;10.08;94.13;98879.63;5008325;28;20041;-86
2021/11/02 15:19:42;;;;;;;3.30;0.90;;;12.20;91.90;;;10.05;94.66;98873.81;5025836;28;20054;-90
2021/11/02 15:22:15;;;;;;;2.70;0.98;;;12.20;91.80;;;10.00;94.76;98882.63;5007702;28;20042;-87
2021/11/02 15:24:45;;;;;;;3.08;1.17;;;12.10;91.90;;;10.02;94.34;98877.00;5010609;28;20494;-87
2021/11/02 15:27:17;;;;;;;2.60;1.00;;;12.20;91.90;;;10.04;94.15;98883.84;5008131;28;20054;-87
2021/11/02 15:29:49;;;;;;;4.13;1.10;;;12.10;91.90;;;10.06;94.14;98879.03;5009215;28;20116;-86
2021/11/02 15:32:19;;;;;;;3.33;1.65;;;12.10;92.00;;;10.05;94.22;98882.81;5010030;28;20514;-86